sensor_id;sensor_type;location;lat;lon;timestamp;P1;durP1;ratioP1;P2;durP2;ratioP2
33160;SDS011;19522;45.656;11.302;2023-04-24T00:01:37;14.00;;;10.57;;
33160;SDS011;19522;45.656;11.302;2023-04-24T00:04:04;13.68;;;11.18;;
33160;SDS011;19522;45.656;11.302;2023-04-24T00:06:32;16.38;;;11.90;;
33160;SDS011;19522;45.656;11.302;2023-04-24T00:08:59;15.13;;;12.00;;
33160;SDS011;19522;45.656;11.302;2023-04-24T00:11:26;18.13;;;12.85;;
33160;SDS011;19522;45.656;11.302;2023-04-24T00:13:52;16.17;;;12.40;;
33160;SDS011;19522;45.656;11.302;2023-04-24T00:16:17;17.15;;;11.73;;
33160;SDS011;19522;45.656;11.302;2023-04-24T00:18:43;15.65;;;12.27;;
33160;SDS011;19522;45.656;11.302;2023-04-24T00:21:10;16.83;;;12.63;;
33160;SDS011;19522;45.656;11.302;2023-04-24T00:23:35;16.00;;;12.38;;
33160;SDS011;19522;45.656;11.302;2023-04-24T00:26:01;16.63;;;12.52;;
33160;SDS011;19522;45.656;11.302;2023-04-24T00:28:27;18.17;;;12.45;;
33160;SDS011;19522;45.656;11.302;2023-04-24T00:30:52;16.23;;;12.25;;
33160;SDS011;19522;45.656;11.302;2023-04-24T00:33:18;16.30;;;11.77;;
33160;SDS011;19522;45.656;11.302;2023-04-24T00:35:44;14.35;;;11.80;;
33160;SDS011;19522;45.656;11.302;2023-04-24T00:38:10;15.27;;;11.70;;
33160;SDS011;19522;45.656;11.302;2023-04-24T00:40:35;15.88;;;11.73;;
33160;SDS011;19522;45.656;11.302;2023-04-24T00:43:01;16.80;;;12.98;;
33160;SDS011;19522;45.656;11.302;2023-04-24T00:45:26;19.40;;;13.88;;
33160;SDS011;19522;45.656;11.302;2023-04-24T00:47:52;23.48;;;16.13;;
33160;SDS011;19522;45.656;11.302;2023-04-24T00:50:18;29.35;;;22.40;;
33160;SDS011;19522;45.656;11.302;2023-04-24T00:52:44;21.15;;;16.17;;
33160;SDS011;19522;45.656;11.302;2023-04-24T00:55:10;16.67;;;14.25;;
33160;SDS011;19522;45.656;11.302;2023-04-24T00:57:36;20.17;;;14.90;;
33160;SDS011;19522;45.656;11.302;2023-04-24T01:00:04;20.52;;;16.27;;
33160;SDS011;19522;45.656;11.302;2023-04-24T01:02:30;21.50;;;16.90;;
33160;SDS011;19522;45.656;11.302;2023-04-24T01:04:59;20.48;;;16.10;;
33160;SDS011;19522;45.656;11.302;2023-04-24T01:07:26;22.73;;;16.92;;
33160;SDS011;19522;45.656;11.302;2023-04-24T01:09:52;21.60;;;16.83;;
33160;SDS011;19522;45.656;11.302;2023-04-24T01:12:19;21.05;;;16.95;;
33160;SDS011;19522;45.656;11.302;2023-04-24T01:14:44;21.77;;;17.27;;
33160;SDS011;19522;45.656;11.302;2023-04-24T01:17:10;23.77;;;17.63;;
33160;SDS011;19522;45.656;11.302;2023-04-24T01:19:37;22.58;;;17.63;;
33160;SDS011;19522;45.656;11.302;2023-04-24T01:22:03;22.85;;;17.98;;
33160;SDS011;19522;45.656;11.302;2023-04-24T01:24:33;24.17;;;16.63;;
33160;SDS011;19522;45.656;11.302;2023-04-24T01:26:59;23.48;;;17.42;;
33160;SDS011;19522;45.656;11.302;2023-04-24T01:29:26;25.10;;;17.83;;
33160;SDS011;19522;45.656;11.302;2023-04-24T01:31:52;21.25;;;17.13;;
33160;SDS011;19522;45.656;11.302;2023-04-24T01:34:17;21.88;;;16.30;;
33160;SDS011;19522;45.656;11.302;2023-04-24T01:36:43;19.75;;;15.38;;
33160;SDS011;19522;45.656;11.302;2023-04-24T01:39:11;19.80;;;16.20;;
33160;SDS011;19522;45.656;11.302;2023-04-24T01:41:36;19.80;;;15.55;;
33160;SDS011;19522;45.656;11.302;2023-04-24T01:44:02;19.02;;;15.27;;
33160;SDS011;19522;45.656;11.302;2023-04-24T01:46:28;23.23;;;16.17;;
33160;SDS011;19522;45.656;11.302;2023-04-24T01:48:55;21.90;;;14.82;;
33160;SDS011;19522;45.656;11.302;2023-04-24T01:51:21;19.30;;;14.52;;
33160;SDS011;19522;45.656;11.302;2023-04-24T01:53:46;18.42;;;15.48;;
33160;SDS011;19522;45.656;11.302;2023-04-24T01:56:12;16.65;;;13.95;;
33160;SDS011;19522;45.656;11.302;2023-04-24T01:58:38;18.08;;;14.50;;
33160;SDS011;19522;45.656;11.302;2023-04-24T02:01:05;15.00;;;12.15;;
33160;SDS011;19522;45.656;11.302;2023-04-24T02:03:31;19.27;;;13.60;;
33160;SDS011;19522;45.656;11.302;2023-04-24T02:05:57;17.70;;;12.45;;
33160;SDS011;19522;45.656;11.302;2023-04-24T02:08:22;15.73;;;13.20;;
33160;SDS011;19522;45.656;11.302;2023-04-24T02:10:48;19.45;;;13.43;;
33160;SDS011;19522;45.656;11.302;2023-04-24T02:13:13;16.38;;;12.73;;
33160;SDS011;19522;45.656;11.302;2023-04-24T02:15:39;16.17;;;12.45;;
33160;SDS011;19522;45.656;11.302;2023-04-24T02:18:04;16.20;;;12.88;;
33160;SDS011;19522;45.656;11.302;2023-04-24T02:20:31;18.75;;;13.60;;
33160;SDS011;19522;45.656;11.302;2023-04-24T02:22:59;15.02;;;12.35;;
33160;SDS011;19522;45.656;11.302;2023-04-24T02:25:24;19.88;;;13.27;;
33160;SDS011;19522;45.656;11.302;2023-04-24T02:27:50;18.80;;;13.93;;
33160;SDS011;19522;45.656;11.302;2023-04-24T02:30:15;18.33;;;13.23;;
33160;SDS011;19522;45.656;11.302;2023-04-24T02:32:40;16.90;;;13.75;;
33160;SDS011;19522;45.656;11.302;2023-04-24T02:35:06;19.65;;;14.05;;
33160;SDS011;19522;45.656;11.302;2023-04-24T02:37:32;19.35;;;14.13;;
33160;SDS011;19522;45.656;11.302;2023-04-24T02:39:57;16.85;;;12.68;;
33160;SDS011;19522;45.656;11.302;2023-04-24T02:42:23;16.10;;;13.40;;
33160;SDS011;19522;45.656;11.302;2023-04-24T02:44:48;19.00;;;13.90;;
33160;SDS011;19522;45.656;11.302;2023-04-24T02:47:16;18.60;;;13.75;;
33160;SDS011;19522;45.656;11.302;2023-04-24T02:49:41;18.45;;;13.60;;
33160;SDS011;19522;45.656;11.302;2023-04-24T02:52:07;17.20;;;13.23;;
33160;SDS011;19522;45.656;11.302;2023-04-24T02:54:32;17.05;;;13.20;;
33160;SDS011;19522;45.656;11.302;2023-04-24T02:56:58;18.10;;;13.98;;
33160;SDS011;19522;45.656;11.302;2023-04-24T02:59:23;21.33;;;15.15;;
33160;SDS011;19522;45.656;11.302;2023-04-24T03:01:49;21.25;;;14.65;;
33160;SDS011;19522;45.656;11.302;2023-04-24T03:04:14;17.60;;;15.10;;
33160;SDS011;19522;45.656;11.302;2023-04-24T03:06:40;19.02;;;14.25;;
33160;SDS011;19522;45.656;11.302;2023-04-24T03:09:06;18.52;;;15.10;;
33160;SDS011;19522;45.656;11.302;2023-04-24T03:11:31;20.50;;;15.07;;
33160;SDS011;19522;45.656;11.302;2023-04-24T03:13:57;18.10;;;14.77;;
33160;SDS011;19522;45.656;11.302;2023-04-24T03:16:22;18.63;;;14.05;;
33160;SDS011;19522;45.656;11.302;2023-04-24T03:18:47;23.15;;;15.80;;
33160;SDS011;19522;45.656;11.302;2023-04-24T03:21:13;21.58;;;14.85;;
33160;SDS011;19522;45.656;11.302;2023-04-24T03:23:38;21.48;;;14.25;;
33160;SDS011;19522;45.656;11.302;2023-04-24T03:26:04;18.58;;;13.23;;
33160;SDS011;19522;45.656;11.302;2023-04-24T03:28:30;17.63;;;14.07;;
33160;SDS011;19522;45.656;11.302;2023-04-24T03:30:55;18.02;;;14.63;;
33160;SDS011;19522;45.656;11.302;2023-04-24T03:33:21;19.48;;;14.65;;
33160;SDS011;19522;45.656;11.302;2023-04-24T03:35:46;17.30;;;14.35;;
33160;SDS011;19522;45.656;11.302;2023-04-24T03:38:12;21.17;;;15.90;;
33160;SDS011;19522;45.656;11.302;2023-04-24T03:40:37;20.13;;;15.10;;
33160;SDS011;19522;45.656;11.302;2023-04-24T03:43:02;18.30;;;14.02;;
33160;SDS011;19522;45.656;11.302;2023-04-24T03:45:28;19.98;;;14.30;;
33160;SDS011;19522;45.656;11.302;2023-04-24T03:47:53;19.25;;;13.95;;
33160;SDS011;19522;45.656;11.302;2023-04-24T03:50:19;17.63;;;14.60;;
33160;SDS011;19522;45.656;11.302;2023-04-24T03:52:45;20.20;;;14.65;;
33160;SDS011;19522;45.656;11.302;2023-04-24T03:55:10;19.00;;;14.27;;
33160;SDS011;19522;45.656;11.302;2023-04-24T03:57:37;16.92;;;14.60;;
33160;SDS011;19522;45.656;11.302;2023-04-24T04:00:04;18.13;;;14.55;;
33160;SDS011;19522;45.656;11.302;2023-04-24T04:02:30;19.88;;;14.57;;
33160;SDS011;19522;45.656;11.302;2023-04-24T04:04:56;17.88;;;13.85;;
33160;SDS011;19522;45.656;11.302;2023-04-24T04:07:21;18.98;;;14.70;;
33160;SDS011;19522;45.656;11.302;2023-04-24T04:09:47;18.63;;;13.80;;
33160;SDS011;19522;45.656;11.302;2023-04-24T04:12:12;16.60;;;13.75;;
33160;SDS011;19522;45.656;11.302;2023-04-24T04:14:37;16.13;;;13.77;;
33160;SDS011;19522;45.656;11.302;2023-04-24T04:17:03;19.90;;;15.45;;
33160;SDS011;19522;45.656;11.302;2023-04-24T04:19:28;19.40;;;14.52;;
33160;SDS011;19522;45.656;11.302;2023-04-24T04:21:54;19.48;;;14.43;;
33160;SDS011;19522;45.656;11.302;2023-04-24T04:24:21;18.00;;;14.40;;
33160;SDS011;19522;45.656;11.302;2023-04-24T04:26:47;15.57;;;12.90;;
33160;SDS011;19522;45.656;11.302;2023-04-24T04:29:16;16.40;;;12.25;;
33160;SDS011;19522;45.656;11.302;2023-04-24T04:31:43;15.30;;;11.15;;
33160;SDS011;19522;45.656;11.302;2023-04-24T04:34:09;16.50;;;11.80;;
33160;SDS011;19522;45.656;11.302;2023-04-24T04:36:35;17.17;;;12.07;;
33160;SDS011;19522;45.656;11.302;2023-04-24T04:39:02;17.80;;;12.00;;
33160;SDS011;19522;45.656;11.302;2023-04-24T04:41:28;14.55;;;11.40;;
33160;SDS011;19522;45.656;11.302;2023-04-24T04:43:53;17.45;;;12.02;;
33160;SDS011;19522;45.656;11.302;2023-04-24T04:46:19;15.18;;;11.82;;
33160;SDS011;19522;45.656;11.302;2023-04-24T04:48:45;13.85;;;11.80;;
33160;SDS011;19522;45.656;11.302;2023-04-24T04:51:10;12.68;;;10.32;;
33160;SDS011;19522;45.656;11.302;2023-04-24T04:53:36;15.20;;;11.27;;
33160;SDS011;19522;45.656;11.302;2023-04-24T04:56:02;13.18;;;10.10;;
33160;SDS011;19522;45.656;11.302;2023-04-24T04:58:28;12.95;;;10.43;;
33160;SDS011;19522;45.656;11.302;2023-04-24T05:00:53;16.23;;;11.48;;
33160;SDS011;19522;45.656;11.302;2023-04-24T05:03:18;13.85;;;11.13;;
33160;SDS011;19522;45.656;11.302;2023-04-24T05:05:44;15.23;;;11.05;;
33160;SDS011;19522;45.656;11.302;2023-04-24T05:08:09;15.95;;;10.35;;
33160;SDS011;19522;45.656;11.302;2023-04-24T05:10:35;13.75;;;10.25;;
33160;SDS011;19522;45.656;11.302;2023-04-24T05:13:02;14.13;;;10.18;;
33160;SDS011;19522;45.656;11.302;2023-04-24T05:15:28;12.75;;;9.50;;
33160;SDS011;19522;45.656;11.302;2023-04-24T05:17:55;12.90;;;10.63;;
33160;SDS011;19522;45.656;11.302;2023-04-24T05:20:20;10.25;;;9.00;;
33160;SDS011;19522;45.656;11.302;2023-04-24T05:22:46;12.00;;;9.90;;
33160;SDS011;19522;45.656;11.302;2023-04-24T05:25:11;15.45;;;9.93;;
33160;SDS011;19522;45.656;11.302;2023-04-24T05:27:37;13.13;;;9.75;;
33160;SDS011;19522;45.656;11.302;2023-04-24T05:30:03;11.07;;;9.07;;
33160;SDS011;19522;45.656;11.302;2023-04-24T05:32:29;11.57;;;9.00;;
33160;SDS011;19522;45.656;11.302;2023-04-24T05:34:55;11.90;;;9.13;;
33160;SDS011;19522;45.656;11.302;2023-04-24T05:37:21;12.52;;;8.98;;
33160;SDS011;19522;45.656;11.302;2023-04-24T05:39:46;12.82;;;9.63;;
33160;SDS011;19522;45.656;11.302;2023-04-24T05:42:12;12.35;;;9.07;;
33160;SDS011;19522;45.656;11.302;2023-04-24T05:44:37;11.48;;;9.48;;
33160;SDS011;19522;45.656;11.302;2023-04-24T05:47:03;22.48;;;9.43;;
33160;SDS011;19522;45.656;11.302;2023-04-24T05:49:28;13.05;;;9.55;;
33160;SDS011;19522;45.656;11.302;2023-04-24T05:51:54;13.57;;;9.38;;
33160;SDS011;19522;45.656;11.302;2023-04-24T05:54:19;11.18;;;8.75;;
33160;SDS011;19522;45.656;11.302;2023-04-24T05:56:45;9.65;;;8.30;;
33160;SDS011;19522;45.656;11.302;2023-04-24T05:59:11;10.50;;;7.68;;
33160;SDS011;19522;45.656;11.302;2023-04-24T06:01:36;9.82;;;8.45;;
33160;SDS011;19522;45.656;11.302;2023-04-24T06:04:03;10.00;;;7.90;;
33160;SDS011;19522;45.656;11.302;2023-04-24T06:06:29;11.93;;;9.13;;
33160;SDS011;19522;45.656;11.302;2023-04-24T06:08:54;12.10;;;9.32;;
33160;SDS011;19522;45.656;11.302;2023-04-24T06:11:20;10.10;;;7.75;;
33160;SDS011;19522;45.656;11.302;2023-04-24T06:13:46;12.07;;;8.80;;
33160;SDS011;19522;45.656;11.302;2023-04-24T06:16:11;11.88;;;10.52;;
33160;SDS011;19522;45.656;11.302;2023-04-24T06:18:37;11.55;;;9.45;;
33160;SDS011;19522;45.656;11.302;2023-04-24T06:21:02;10.38;;;7.20;;
33160;SDS011;19522;45.656;11.302;2023-04-24T06:23:28;9.15;;;5.05;;
33160;SDS011;19522;45.656;11.302;2023-04-24T06:25:54;3.33;;;2.92;;
33160;SDS011;19522;45.656;11.302;2023-04-24T06:28:19;2.38;;;1.67;;
33160;SDS011;19522;45.656;11.302;2023-04-24T06:30:45;1.98;;;1.60;;
33160;SDS011;19522;45.656;11.302;2023-04-24T06:33:10;2.38;;;1.60;;
33160;SDS011;19522;45.656;11.302;2023-04-24T06:35:36;1.65;;;1.00;;
33160;SDS011;19522;45.656;11.302;2023-04-24T06:38:03;0.95;;;0.60;;
33160;SDS011;19522;45.656;11.302;2023-04-24T06:40:28;1.45;;;0.95;;
33160;SDS011;19522;45.656;11.302;2023-04-24T06:42:54;1.17;;;0.82;;
33160;SDS011;19522;45.656;11.302;2023-04-24T06:45:20;2.63;;;0.63;;
33160;SDS011;19522;45.656;11.302;2023-04-24T06:47:46;1.02;;;0.80;;
33160;SDS011;19522;45.656;11.302;2023-04-24T06:50:11;0.52;;;0.40;;
33160;SDS011;19522;45.656;11.302;2023-04-24T06:52:37;1.40;;;1.00;;
33160;SDS011;19522;45.656;11.302;2023-04-24T06:55:03;2.17;;;1.27;;
33160;SDS011;19522;45.656;11.302;2023-04-24T06:57:29;2.20;;;1.45;;
33160;SDS011;19522;45.656;11.302;2023-04-24T06:59:55;1.63;;;1.02;;
33160;SDS011;19522;45.656;11.302;2023-04-24T07:02:21;1.88;;;0.90;;
33160;SDS011;19522;45.656;11.302;2023-04-24T07:04:47;1.23;;;0.85;;
33160;SDS011;19522;45.656;11.302;2023-04-24T07:07:15;1.23;;;0.50;;
33160;SDS011;19522;45.656;11.302;2023-04-24T07:09:41;1.30;;;1.08;;
33160;SDS011;19522;45.656;11.302;2023-04-24T07:12:10;1.98;;;0.98;;
33160;SDS011;19522;45.656;11.302;2023-04-24T07:14:36;1.52;;;0.70;;
33160;SDS011;19522;45.656;11.302;2023-04-24T07:17:03;1.00;;;0.60;;
33160;SDS011;19522;45.656;11.302;2023-04-24T07:19:29;0.25;;;0.25;;
33160;SDS011;19522;45.656;11.302;2023-04-24T07:21:54;1.38;;;0.20;;
33160;SDS011;19522;45.656;11.302;2023-04-24T07:24:20;0.30;;;0.30;;
33160;SDS011;19522;45.656;11.302;2023-04-24T07:26:45;0.40;;;0.40;;
33160;SDS011;19522;45.656;11.302;2023-04-24T07:29:11;0.85;;;0.80;;
33160;SDS011;19522;45.656;11.302;2023-04-24T07:31:37;0.85;;;0.55;;
33160;SDS011;19522;45.656;11.302;2023-04-24T07:34:02;1.30;;;0.98;;
33160;SDS011;19522;45.656;11.302;2023-04-24T07:36:28;2.90;;;1.63;;
33160;SDS011;19522;45.656;11.302;2023-04-24T07:38:54;2.17;;;1.05;;
33160;SDS011;19522;45.656;11.302;2023-04-24T07:41:20;1.65;;;0.60;;
33160;SDS011;19522;45.656;11.302;2023-04-24T07:43:46;1.98;;;1.00;;
33160;SDS011;19522;45.656;11.302;2023-04-24T07:46:11;0.77;;;0.60;;
33160;SDS011;19522;45.656;11.302;2023-04-24T07:48:37;0.93;;;0.63;;
33160;SDS011;19522;45.656;11.302;2023-04-24T07:51:03;1.08;;;0.60;;
33160;SDS011;19522;45.656;11.302;2023-04-24T07:53:28;1.02;;;0.60;;
33160;SDS011;19522;45.656;11.302;2023-04-24T07:55:54;2.47;;;1.27;;
33160;SDS011;19522;45.656;11.302;2023-04-24T07:58:20;1.10;;;0.77;;
33160;SDS011;19522;45.656;11.302;2023-04-24T08:00:46;0.90;;;0.73;;
33160;SDS011;19522;45.656;11.302;2023-04-24T08:03:12;0.93;;;0.50;;
33160;SDS011;19522;45.656;11.302;2023-04-24T08:05:37;0.77;;;0.60;;
33160;SDS011;19522;45.656;11.302;2023-04-24T08:08:03;0.98;;;0.57;;
33160;SDS011;19522;45.656;11.302;2023-04-24T08:10:29;1.50;;;0.57;;
33160;SDS011;19522;45.656;11.302;2023-04-24T08:12:54;2.38;;;0.68;;
33160;SDS011;19522;45.656;11.302;2023-04-24T08:15:20;0.93;;;0.70;;
33160;SDS011;19522;45.656;11.302;2023-04-24T08:17:46;1.23;;;0.80;;
33160;SDS011;19522;45.656;11.302;2023-04-24T08:20:12;1.52;;;1.00;;
33160;SDS011;19522;45.656;11.302;2023-04-24T08:22:40;2.13;;;0.50;;
33160;SDS011;19522;45.656;11.302;2023-04-24T08:25:07;2.55;;;0.88;;
33160;SDS011;19522;45.656;11.302;2023-04-24T08:27:33;1.23;;;0.77;;
33160;SDS011;19522;45.656;11.302;2023-04-24T08:29:59;1.10;;;0.70;;
33160;SDS011;19522;45.656;11.302;2023-04-24T08:32:25;2.10;;;0.77;;
33160;SDS011;19522;45.656;11.302;2023-04-24T08:34:54;1.20;;;0.80;;
33160;SDS011;19522;45.656;11.302;2023-04-24T08:37:21;1.60;;;0.70;;
33160;SDS011;19522;45.656;11.302;2023-04-24T08:39:47;1.00;;;0.60;;
33160;SDS011;19522;45.656;11.302;2023-04-24T08:42:13;2.38;;;0.90;;
33160;SDS011;19522;45.656;11.302;2023-04-24T08:44:40;2.05;;;0.95;;
33160;SDS011;19522;45.656;11.302;2023-04-24T08:47:06;2.30;;;1.10;;
33160;SDS011;19522;45.656;11.302;2023-04-24T08:49:33;4.57;;;1.23;;
33160;SDS011;19522;45.656;11.302;2023-04-24T08:52:01;2.40;;;1.05;;
33160;SDS011;19522;45.656;11.302;2023-04-24T08:54:27;2.60;;;1.27;;
33160;SDS011;19522;45.656;11.302;2023-04-24T08:56:54;2.67;;;1.52;;
33160;SDS011;19522;45.656;11.302;2023-04-24T08:59:26;2.25;;;1.38;;
33160;SDS011;19522;45.656;11.302;2023-04-24T09:01:53;1.23;;;0.77;;
33160;SDS011;19522;45.656;11.302;2023-04-24T09:04:20;1.90;;;1.25;;
33160;SDS011;19522;45.656;11.302;2023-04-24T09:06:49;0.43;;;0.43;;
33160;SDS011;19522;45.656;11.302;2023-04-24T09:09:16;4.40;;;2.15;;
33160;SDS011;19522;45.656;11.302;2023-04-24T09:11:43;1.40;;;0.70;;
33160;SDS011;19522;45.656;11.302;2023-04-24T09:14:09;0.85;;;0.70;;
33160;SDS011;19522;45.656;11.302;2023-04-24T09:16:35;1.65;;;0.90;;
33160;SDS011;19522;45.656;11.302;2023-04-24T09:19:01;1.30;;;0.70;;
33160;SDS011;19522;45.656;11.302;2023-04-24T09:21:31;0.73;;;0.60;;
33160;SDS011;19522;45.656;11.302;2023-04-24T09:24:00;1.42;;;0.82;;
33160;SDS011;19522;45.656;11.302;2023-04-24T09:26:31;1.27;;;0.70;;
33160;SDS011;19522;45.656;11.302;2023-04-24T09:28:59;1.80;;;0.98;;
33160;SDS011;19522;45.656;11.302;2023-04-24T09:31:26;0.93;;;0.50;;
33160;SDS011;19522;45.656;11.302;2023-04-24T09:33:57;0.75;;;0.50;;
33160;SDS011;19522;45.656;11.302;2023-04-24T09:36:26;1.10;;;0.40;;
33160;SDS011;19522;45.656;11.302;2023-04-24T09:38:55;1.45;;;0.90;;
33160;SDS011;19522;45.656;11.302;2023-04-24T09:41:23;1.13;;;0.50;;
33160;SDS011;19522;45.656;11.302;2023-04-24T09:43:49;1.23;;;0.60;;
33160;SDS011;19522;45.656;11.302;2023-04-24T09:46:14;3.58;;;1.25;;
33160;SDS011;19522;45.656;11.302;2023-04-24T09:48:43;2.67;;;1.75;;
33160;SDS011;19522;45.656;11.302;2023-04-24T09:51:09;1.45;;;0.90;;
33160;SDS011;19522;45.656;11.302;2023-04-24T09:53:37;1.55;;;0.73;;
33160;SDS011;19522;45.656;11.302;2023-04-24T09:56:08;1.10;;;0.63;;
33160;SDS011;19522;45.656;11.302;2023-04-24T09:58:36;0.88;;;0.60;;
33160;SDS011;19522;45.656;11.302;2023-04-24T10:01:02;1.48;;;0.90;;
33160;SDS011;19522;45.656;11.302;2023-04-24T10:03:31;1.88;;;0.88;;
33160;SDS011;19522;45.656;11.302;2023-04-24T10:06:02;0.95;;;0.68;;
33160;SDS011;19522;45.656;11.302;2023-04-24T10:08:33;1.70;;;0.77;;
33160;SDS011;19522;45.656;11.302;2023-04-24T10:11:00;2.65;;;1.00;;
33160;SDS011;19522;45.656;11.302;2023-04-24T10:13:26;1.02;;;0.55;;
33160;SDS011;19522;45.656;11.302;2023-04-24T10:15:53;0.88;;;0.47;;
33160;SDS011;19522;45.656;11.302;2023-04-24T10:18:19;1.05;;;0.40;;
33160;SDS011;19522;45.656;11.302;2023-04-24T10:20:46;0.80;;;0.50;;
33160;SDS011;19522;45.656;11.302;2023-04-24T10:23:12;1.10;;;0.55;;
33160;SDS011;19522;45.656;11.302;2023-04-24T10:25:38;2.53;;;0.50;;
33160;SDS011;19522;45.656;11.302;2023-04-24T10:28:04;1.02;;;0.43;;
33160;SDS011;19522;45.656;11.302;2023-04-24T10:30:31;1.20;;;0.65;;
33160;SDS011;19522;45.656;11.302;2023-04-24T10:33:02;1.13;;;0.30;;
33160;SDS011;19522;45.656;11.302;2023-04-24T10:35:33;3.30;;;1.90;;
33160;SDS011;19522;45.656;11.302;2023-04-24T10:38:06;2.03;;;1.40;;
33160;SDS011;19522;45.656;11.302;2023-04-24T10:40:34;2.63;;;2.03;;
33160;SDS011;19522;45.656;11.302;2023-04-24T10:43:04;4.97;;;2.30;;
33160;SDS011;19522;45.656;11.302;2023-04-24T10:45:33;3.28;;;1.98;;
33160;SDS011;19522;45.656;11.302;2023-04-24T10:50:29;5.90;;;2.65;;
33160;SDS011;19522;45.656;11.302;2023-04-24T10:53:06;5.25;;;2.22;;
33160;SDS011;19522;45.656;11.302;2023-04-24T10:55:45;4.25;;;1.90;;
33160;SDS011;19522;45.656;11.302;2023-04-24T10:58:45;2.10;;;0.93;;
33160;SDS011;19522;45.656;11.302;2023-04-24T11:01:25;2.20;;;0.88;;
33160;SDS011;19522;45.656;11.302;2023-04-24T11:03:58;1.60;;;0.77;;
33160;SDS011;19522;45.656;11.302;2023-04-24T11:06:35;1.42;;;0.80;;
33160;SDS011;19522;45.656;11.302;2023-04-24T11:09:05;1.80;;;1.10;;
33160;SDS011;19522;45.656;11.302;2023-04-24T11:11:32;1.88;;;0.93;;
33160;SDS011;19522;45.656;11.302;2023-04-24T11:16:34;4.28;;;3.17;;
33160;SDS011;19522;45.656;11.302;2023-04-24T11:21:48;7.97;;;6.38;;
33160;SDS011;19522;45.656;11.302;2023-04-24T11:26:51;8.70;;;6.32;;
33160;SDS011;19522;45.656;11.302;2023-04-24T11:29:19;10.35;;;6.45;;
33160;SDS011;19522;45.656;11.302;2023-04-24T11:31:46;9.23;;;5.97;;
33160;SDS011;19522;45.656;11.302;2023-04-24T11:34:17;7.95;;;6.28;;
33160;SDS011;19522;45.656;11.302;2023-04-24T11:36:44;7.75;;;5.55;;
33160;SDS011;19522;45.656;11.302;2023-04-24T11:39:13;7.38;;;5.80;;
33160;SDS011;19522;45.656;11.302;2023-04-24T11:41:39;6.68;;;5.68;;
33160;SDS011;19522;45.656;11.302;2023-04-24T11:44:06;5.60;;;4.65;;
33160;SDS011;19522;45.656;11.302;2023-04-24T11:46:33;6.53;;;5.25;;
33160;SDS011;19522;45.656;11.302;2023-04-24T11:48:59;5.22;;;4.32;;
33160;SDS011;19522;45.656;11.302;2023-04-24T11:51:25;5.63;;;4.53;;
33160;SDS011;19522;45.656;11.302;2023-04-24T11:53:55;5.45;;;4.00;;
33160;SDS011;19522;45.656;11.302;2023-04-24T11:56:21;4.13;;;3.13;;
33160;SDS011;19522;45.656;11.302;2023-04-24T11:58:48;3.95;;;2.95;;
33160;SDS011;19522;45.656;11.302;2023-04-24T12:01:13;3.78;;;3.03;;
33160;SDS011;19522;45.656;11.302;2023-04-24T12:03:39;4.10;;;2.90;;
33160;SDS011;19522;45.656;11.302;2023-04-24T12:06:08;3.95;;;2.55;;
33160;SDS011;19522;45.656;11.302;2023-04-24T12:08:35;4.35;;;2.92;;
33160;SDS011;19522;45.656;11.302;2023-04-24T12:11:05;2.70;;;1.83;;
33160;SDS011;19522;45.656;11.302;2023-04-24T12:13:34;3.00;;;1.60;;
33160;SDS011;19522;45.656;11.302;2023-04-24T12:16:02;2.92;;;2.10;;
33160;SDS011;19522;45.656;11.302;2023-04-24T12:18:28;2.67;;;1.67;;
33160;SDS011;19522;45.656;11.302;2023-04-24T12:20:54;2.28;;;1.67;;
33160;SDS011;19522;45.656;11.302;2023-04-24T12:23:34;3.53;;;2.22;;
33160;SDS011;19522;45.656;11.302;2023-04-24T12:26:00;3.25;;;2.08;;
33160;SDS011;19522;45.656;11.302;2023-04-24T12:28:34;5.13;;;2.13;;
33160;SDS011;19522;45.656;11.302;2023-04-24T12:31:01;3.40;;;2.15;;
33160;SDS011;19522;45.656;11.302;2023-04-24T12:33:27;3.50;;;2.20;;
33160;SDS011;19522;45.656;11.302;2023-04-24T12:35:52;3.15;;;2.30;;
33160;SDS011;19522;45.656;11.302;2023-04-24T12:38:21;3.60;;;1.98;;
33160;SDS011;19522;45.656;11.302;2023-04-24T12:41:00;3.78;;;2.00;;
33160;SDS011;19522;45.656;11.302;2023-04-24T12:43:27;6.55;;;2.20;;
33160;SDS011;19522;45.656;11.302;2023-04-24T12:45:53;2.80;;;1.65;;
33160;SDS011;19522;45.656;11.302;2023-04-24T12:48:18;5.57;;;1.80;;
33160;SDS011;19522;45.656;11.302;2023-04-24T12:50:46;3.08;;;2.40;;
33160;SDS011;19522;45.656;11.302;2023-04-24T12:53:11;3.55;;;2.25;;
33160;SDS011;19522;45.656;11.302;2023-04-24T12:55:37;3.90;;;2.22;;
33160;SDS011;19522;45.656;11.302;2023-04-24T12:58:02;4.28;;;2.10;;
33160;SDS011;19522;45.656;11.302;2023-04-24T13:00:28;4.05;;;2.60;;
33160;SDS011;19522;45.656;11.302;2023-04-24T13:02:53;4.32;;;2.65;;
33160;SDS011;19522;45.656;11.302;2023-04-24T13:05:19;4.45;;;2.83;;
33160;SDS011;19522;45.656;11.302;2023-04-24T13:07:44;4.30;;;2.55;;
33160;SDS011;19522;45.656;11.302;2023-04-24T13:10:10;4.43;;;2.85;;
33160;SDS011;19522;45.656;11.302;2023-04-24T13:12:36;4.00;;;2.25;;
33160;SDS011;19522;45.656;11.302;2023-04-24T13:15:02;5.93;;;2.92;;
33160;SDS011;19522;45.656;11.302;2023-04-24T13:17:28;4.60;;;3.03;;
33160;SDS011;19522;45.656;11.302;2023-04-24T13:19:54;4.30;;;3.05;;
33160;SDS011;19522;45.656;11.302;2023-04-24T13:22:20;5.10;;;2.70;;
33160;SDS011;19522;45.656;11.302;2023-04-24T13:24:45;4.70;;;3.00;;
33160;SDS011;19522;45.656;11.302;2023-04-24T13:27:13;4.60;;;2.95;;
33160;SDS011;19522;45.656;11.302;2023-04-24T13:29:39;3.85;;;2.40;;
33160;SDS011;19522;45.656;11.302;2023-04-24T13:32:05;4.15;;;2.63;;
33160;SDS011;19522;45.656;11.302;2023-04-24T13:34:31;3.25;;;2.45;;
33160;SDS011;19522;45.656;11.302;2023-04-24T13:36:57;4.40;;;2.15;;
33160;SDS011;19522;45.656;11.302;2023-04-24T13:39:24;4.60;;;2.47;;
33160;SDS011;19522;45.656;11.302;2023-04-24T13:41:50;3.95;;;2.50;;
33160;SDS011;19522;45.656;11.302;2023-04-24T13:44:16;4.20;;;2.42;;
33160;SDS011;19522;45.656;11.302;2023-04-24T13:46:43;2.65;;;2.00;;
33160;SDS011;19522;45.656;11.302;2023-04-24T13:49:10;4.20;;;2.30;;
33160;SDS011;19522;45.656;11.302;2023-04-24T13:51:36;3.67;;;2.50;;
33160;SDS011;19522;45.656;11.302;2023-04-24T13:54:02;4.75;;;2.25;;
33160;SDS011;19522;45.656;11.302;2023-04-24T13:56:27;4.43;;;2.40;;
33160;SDS011;19522;45.656;11.302;2023-04-24T13:58:53;3.25;;;1.90;;
33160;SDS011;19522;45.656;11.302;2023-04-24T14:01:21;3.80;;;2.22;;
33160;SDS011;19522;45.656;11.302;2023-04-24T14:03:50;3.28;;;2.10;;
33160;SDS011;19522;45.656;11.302;2023-04-24T14:06:19;3.88;;;1.95;;
33160;SDS011;19522;45.656;11.302;2023-04-24T14:08:45;4.63;;;1.60;;
33160;SDS011;19522;45.656;11.302;2023-04-24T14:11:12;2.22;;;1.60;;
33160;SDS011;19522;45.656;11.302;2023-04-24T14:13:37;3.78;;;1.63;;
33160;SDS011;19522;45.656;11.302;2023-04-24T14:16:03;2.42;;;1.63;;
33160;SDS011;19522;45.656;11.302;2023-04-24T14:18:29;3.25;;;2.03;;
33160;SDS011;19522;45.656;11.302;2023-04-24T14:20:55;4.22;;;1.98;;
33160;SDS011;19522;45.656;11.302;2023-04-24T14:23:20;2.63;;;1.73;;
33160;SDS011;19522;45.656;11.302;2023-04-24T14:25:46;3.38;;;1.70;;
33160;SDS011;19522;45.656;11.302;2023-04-24T14:28:15;4.57;;;2.10;;
33160;SDS011;19522;45.656;11.302;2023-04-24T14:30:41;2.45;;;1.60;;